Kezdőlap
METAR-TAF:

METAR-TAF

Repülőterek :

Haneda nemzetközi repülőtér

Tokió Haneda, Japán

földrajzi szélesség: 35-33N, földrajzi hosszúság: 139-47E, magasság: 5 m

Jelenlegi meteorológiai megfigyelések

A jelentés 31 perccel ezelõtt készült, 21:30 UTC
Észak-északkeleti szél 14 kt
Hőmérséklet 14°C
Páratartalom 51%
Légköri nyomás 1014 hPa
Látótávolság 10 km, vagy több
Kevés felhő 1500 lábon
Szakadozott felhőzet 5000 lábon

METAR: RJTT 132130Z 02014KT 9999 FEW015 BKN050 14/04 Q1014 NOSIG RMK 1CU015 7SC050 A2996

Idő: 07:01 (22:01 UTC)

Előrejelzés

A jelentés 4 órával és 56 perccel ezelõtt készült, 17:05 UTC
Az előrejelzés 13-én 18 óra UTC és 15-én 00 óra UTC között érvényes
Északi szél 16 kt
Látótávolság 10 km, vagy több
Kevés felhő 3000 lábon
Szakadozott felhőzet 6000 lábon

TAF: RJTT 131705Z 1318/1500 36016KT 9999 FEW030 BKN060

Meteorológiai megfigyelések és előrejelzések több, mint 4000 repülőtéren (METAR és TAF jelentéseket).

A térképen piros és sárga pontok jelzik az elérhető meteorológiai állomásokat.

Mozgassa az egeret a pont fölött, hogy megjelenjen az állomás neve.

Azután kattintson az időjárási megfigyelések és előrejelzések megtekintéséhez.

A térkép megváltoztatása: kattintson a fekete keresztel jelölt zöld gombra ráközelítéshez, a vonallal jelölt zöld gombra távolításhoz, vagy a zöld nyilakra a szomszédos térképek eléréséhez.


METAR-TAF: